Bookmark and Share
Track history (hours):
 

Celine

Last reported at 2014-Apr-17 18:33 UTC. Time now 2014-Apr-17 18:41 UTC.
Position N 50°32' E 000°01'.

Length 129 m; draft 7.5 m.

Type: Cargo ship. MMSI: 269057000.

NotesDate/timePositionNaut miles runAvg speedWind from/ knotsBaromVisibWave heightAir tempDewpointWater temp
2014-Apr-17 18:33N 50°32' E 000°01'1414.5
2014-Apr-17 17:33N 50°36' E 000°23'1414.2
2014-Apr-17 16:33N 50°42' E 000°43'1313.3
2014-Apr-17 15:33N 50°50' E 000°60'1212.1
2014-Apr-17 14:34N 50°57' E 001°14'1010.2
2014-Apr-17 13:34N 51°04' E 001°27'1010.0
2014-Apr-17 12:33N 51°10' E 001°39'1111.5
2014-Apr-17 11:34N 51°19' E 001°50'1414.0
2014-Apr-17 10:33N 51°30' E 002°04'1615.1
2014-Apr-17 09:32N 51°42' E 002°20'2114.6
2014-Apr-17 08:06N 51°58' E 002°43'913.8
2014-Apr-17 07:28N 52°05' E 002°51'1213.1
2014-Apr-17 06:32N 52°14' E 003°04'1212.2
2014-Apr-17 05:33N 52°24' E 003°15'1211.8
2014-Apr-17 04:33N 52°34' E 003°26'1211.6
2014-Apr-17 03:33N 52°43' E 003°38'1211.8
2014-Apr-17 02:33N 52°52' E 003°50'1313.1
2014-Apr-17 01:33N 53°01' E 004°06'1414.0
2014-Apr-17 00:33N 53°11' E 004°23'1414.0
2014-Apr-16 23:33N 53°24' E 004°31'1313.3
2014-Apr-16 22:34N 53°36' E 004°40'1313.3
2014-Apr-16 21:34N 53°49' E 004°47'1313.0
2014-Apr-16 20:33N 54°01' E 004°54'23112.8
2014-Apr-16 02:33N 57°23' E 008°11'1412.9
2014-Apr-16 01:27N 57°27' E 008°36'1213.2
2014-Apr-16 00:33N 57°31' E 008°57'1313.4
2014-Apr-15 23:34N 57°35' E 009°21'1413.7
2014-Apr-15 22:33N 57°39' E 009°45'1413.7
2014-Apr-15 21:33N 57°43' E 010°10'1313.4
2014-Apr-15 20:33N 57°48' E 010°33'7 7.2
2014-Apr-15 19:34N 57°43' E 010°43'4 3.9
2014-Apr-15 18:30N 57°40' E 010°38'0 0.0
2014-Apr-15 17:30N 57°40' E 010°38'0 0.0
2014-Apr-15 16:30N 57°40' E 010°38'0 0.0
2014-Apr-15 15:33N 57°40' E 010°38'0 0.0
2014-Apr-15 14:33N 57°40' E 010°38'0 0.0
2014-Apr-15 10:31N 57°40' E 010°38'0 0.0
2014-Apr-15 07:30N 57°40' E 010°37'0 0.0
2014-Apr-15 06:33N 57°40' E 010°38'0 0.0
2014-Apr-15 05:33N 57°40' E 010°37'0 0.0
2014-Apr-15 02:34N 57°40' E 010°38'9 9.0
2014-Apr-15 01:34N 57°36' E 010°53'1211.9
2014-Apr-15 00:34N 57°31' E 011°13'1111.3
2014-Apr-14 23:34N 57°24' E 011°29'1212.4
2014-Apr-14 22:33N 57°12' E 011°36'1312.9
2014-Apr-14 21:33N 56°60' E 011°45'1312.9
2014-Apr-14 20:32N 56°48' E 011°52'1212.0
2014-Apr-14 19:33N 56°36' E 011°46'12210.1
2014-Apr-14 07:33N 54°36' E 011°10'1110.5
2014-Apr-14 06:33N 54°31' E 011°26'1111.2
2014-Apr-14 05:33N 54°27' E 011°44'7510.7
2014-Apr-13 22:33N 54°25' E 013°53'1212.2
2014-Apr-13 21:33N 54°16' E 014°07'1211.9
2014-Apr-13 20:33N 54°05' E 014°14'1110.8
2014-Apr-13 19:33N 53°55' E 014°16'7 7.3
2014-Apr-13 18:33N 53°48' E 014°21'1111.1
2014-Apr-13 17:33N 53°39' E 014°33'8 7.5
2014-Apr-13 16:33N 53°32' E 014°38'7 7.0
2014-Apr-13 15:33N 53°25' E 014°37'1 0.1
2014-Apr-13 00:08N 53°24' E 014°36'  

Dump ship's entire track history

sailing weather and tide predictions

Celine — HBEF — position and weather